Portada
METAR-TAF:

METAR-TAF

Aeroports :

Kerteh, Malàisia

latitud: 04-32-15N, longitud: 103-25-36E, altitud: 5 m

Observació

L'informe es va fer fa 1 hora i 8 minuts, a les 13:00 UTC
Vent calma
Temperatura 28°C
Humitat 94%
Pressió 1006 hPa

METAR: WMKE 141300Z AUTO 00000KT //// // ////// 28/27 Q1006

Hora: 22:08 (14:08 UTC)

Pronòstic

L'informe es va fer fa 3 hores i 8 minuts, a les 11:00 UTC
Pronòstic vàlid del 14 a les 12 UTC al 15 a les 12 UTC
Vent 3 kt amb direcció variable
Visibilitat 10 km o més
Escasses núvols a una alçada de 1400 ft
Evolucionant progressivament
l' 15 a les 06 UTC al 15 a les 08 UTC
Vent 6 kt del Est
Escasses núvols a una alçada de 1400 ft, Cumulonimbus.

TAF: WMKE 141100Z 1412/1512 VRB03KT 9999 FEW014 BECMG 1506/1508 10006KT FEW014CB

Observacions i pronòstics meteorològics de més de 4000 aeroports (METAR i TAF).

Les estacions disponibles són els punts grocs i vermells al mapa.

Posi el ratolí al punt desitjat per veure el nom de l'estació.

Feu clic per veure les observacions i els pronòstics meteorològics.

Per canviar el mapa: feu clic els botons verds amb una creu de color negre per apropar; al botó verd amb un guió per allunyar la imatge; o en les fletxes verdes per a mapes adjacents.


METAR-TAF: